Freedom, Oklahoma
Current Conditions -  °F | °C
As of 6:10 AM on Monday 24 Nov 2014 (Local Time) from KAVK Reporting Station
Clear Clear  
Wind Chill: -5°   Ceiling: Unl
Heat Index:   Visibility: 10mi
Dew Point: -7°   Wind: 12mph
Humidity: 60%   Direction: 270°W
Pressure: 29.89"   Gusts: NA
Location:  36.77°N, 99.11°W
Report Text: KAVK 241210Z AUTO 27010KT 10SM CLR 00/M07 A2989 RMK AO2
Loading
Personal Weather Stations






























Interactive Weather Map New forecast layout! Learn more

10-Day Weather Forecast

Advertisements
Track Severe Weather on mobile